sensor_id;sensor_type;location;lat;lon;timestamp;pressure;altitude;pressure_sealevel;temperature;humidity
31239;BME280;17871;31.584;74.450;2023-04-07T00:00:03;98768.75;;;22.04;61.44
31239;BME280;17871;31.584;74.450;2023-04-07T00:02:39;98761.03;;;22.01;61.64
31239;BME280;17871;31.584;74.450;2023-04-07T00:05:15;98775.03;;;21.97;61.42
31239;BME280;17871;31.584;74.450;2023-04-07T00:07:52;98772.41;;;21.98;61.22
31239;BME280;17871;31.584;74.450;2023-04-07T00:10:28;98777.84;;;21.91;61.48
31239;BME280;17871;31.584;74.450;2023-04-07T00:13:02;98776.00;;;21.94;61.48
31239;BME280;17871;31.584;74.450;2023-04-07T00:15:38;98777.84;;;21.91;61.37
31239;BME280;17871;31.584;74.450;2023-04-07T00:18:14;98782.22;;;21.89;61.34
31239;BME280;17871;31.584;74.450;2023-04-07T00:20:50;98784.66;;;21.95;60.58
31239;BME280;17871;31.584;74.450;2023-04-07T00:23:26;98794.84;;;22.02;60.72
31239;BME280;17871;31.584;74.450;2023-04-07T00:26:01;98793.16;;;22.00;60.54
31239;BME280;17871;31.584;74.450;2023-04-07T00:28:35;98791.69;;;21.93;60.50
31239;BME280;17871;31.584;74.450;2023-04-07T00:31:13;98802.78;;;21.98;60.58
31239;BME280;17871;31.584;74.450;2023-04-07T00:33:49;98802.88;;;21.95;60.58
31239;BME280;17871;31.584;74.450;2023-04-07T00:36:27;98804.63;;;21.94;60.88
31239;BME280;17871;31.584;74.450;2023-04-07T00:39:04;98804.69;;;21.93;61.46
31239;BME280;17871;31.584;74.450;2023-04-07T00:41:40;98808.19;;;21.92;61.04
31239;BME280;17871;31.584;74.450;2023-04-07T00:44:14;98803.94;;;21.88;61.13
31239;BME280;17871;31.584;74.450;2023-04-07T00:46:52;98805.78;;;21.84;61.86
31239;BME280;17871;31.584;74.450;2023-04-07T00:49:27;98815.34;;;21.84;61.86
31239;BME280;17871;31.584;74.450;2023-04-07T00:52:05;98815.34;;;21.84;61.78
31239;BME280;17871;31.584;74.450;2023-04-07T00:54:41;98818.13;;;21.78;61.78
31239;BME280;17871;31.584;74.450;2023-04-07T00:57:19;98811.75;;;21.88;61.52
31239;BME280;17871;31.584;74.450;2023-04-07T00:59:57;98816.94;;;21.89;62.19
31239;BME280;17871;31.584;74.450;2023-04-07T01:02:44;98824.84;;;21.85;62.38
31239;BME280;17871;31.584;74.450;2023-04-07T01:08:14;98831.97;;;21.80;62.72
31239;BME280;17871;31.584;74.450;2023-04-07T01:10:59;98830.19;;;21.80;62.08
31239;BME280;17871;31.584;74.450;2023-04-07T01:13:50;98834.38;;;21.86;62.12
31239;BME280;17871;31.584;74.450;2023-04-07T01:16:44;98840.44;;;21.86;62.24
31239;BME280;17871;31.584;74.450;2023-04-07T01:19:45;98840.28;;;21.92;62.30
31239;BME280;17871;31.584;74.450;2023-04-07T01:22:28;98849.03;;;21.90;62.32
31239;BME280;17871;31.584;74.450;2023-04-07T01:25:21;98849.63;;;21.98;62.09
31239;BME280;17871;31.584;74.450;2023-04-07T01:31:06;98853.31;;;21.91;61.37
31239;BME280;17871;31.584;74.450;2023-04-07T01:33:44;98849.50;;;22.02;61.64
31239;BME280;17871;31.584;74.450;2023-04-07T01:36:22;98860.03;;;21.98;61.43
31239;BME280;17871;31.584;74.450;2023-04-07T01:38:59;98859.91;;;22.02;61.36
31239;BME280;17871;31.584;74.450;2023-04-07T01:41:35;98865.13;;;22.02;61.08
31239;BME280;17871;31.584;74.450;2023-04-07T01:44:11;98864.16;;;22.05;61.10
31239;BME280;17871;31.584;74.450;2023-04-07T01:46:49;98862.34;;;22.07;61.34
31239;BME280;17871;31.584;74.450;2023-04-07T01:49:26;98870.06;;;22.10;61.19
31239;BME280;17871;31.584;74.450;2023-04-07T01:52:02;98870.06;;;22.10;61.00
31239;BME280;17871;31.584;74.450;2023-04-07T01:54:40;98868.03;;;22.19;60.83
31239;BME280;17871;31.584;74.450;2023-04-07T01:57:16;98867.19;;;22.19;60.58
31239;BME280;17871;31.584;74.450;2023-04-07T01:59:59;98876.69;;;22.20;60.18
31239;BME280;17871;31.584;74.450;2023-04-07T02:02:44;98876.50;;;22.26;59.76
31239;BME280;17871;31.584;74.450;2023-04-07T02:05:22;98888.59;;;22.27;59.83
31239;BME280;17871;31.584;74.450;2023-04-07T02:08:04;98884.91;;;22.34;59.67
31239;BME280;17871;31.584;74.450;2023-04-07T02:10:41;98887.38;;;22.39;59.92
31239;BME280;17871;31.584;74.450;2023-04-07T02:13:17;98884.16;;;22.31;58.67
31239;BME280;17871;31.584;74.450;2023-04-07T02:15:54;98888.28;;;22.36;59.28
31239;BME280;17871;31.584;74.450;2023-04-07T02:18:32;98888.28;;;22.36;59.29
31239;BME280;17871;31.584;74.450;2023-04-07T02:21:10;98889.69;;;22.46;59.16
31239;BME280;17871;31.584;74.450;2023-04-07T02:23:46;98890.41;;;22.51;59.18
31239;BME280;17871;31.584;74.450;2023-04-07T02:26:21;98895.53;;;22.54;58.90
31239;BME280;17871;31.584;74.450;2023-04-07T02:28:57;98890.81;;;22.65;58.24
31239;BME280;17871;31.584;74.450;2023-04-07T02:31:33;98897.41;;;22.77;59.16
31239;BME280;17871;31.584;74.450;2023-04-07T02:34:09;98898.94;;;22.83;58.99
31239;BME280;17871;31.584;74.450;2023-04-07T02:36:44;98899.78;;;22.57;58.18
31239;BME280;17871;31.584;74.450;2023-04-07T02:39:19;98895.56;;;22.79;58.23
31239;BME280;17871;31.584;74.450;2023-04-07T02:41:55;98905.75;;;22.87;57.06
31239;BME280;17871;31.584;74.450;2023-04-07T02:44:31;98897.41;;;23.02;57.21
31239;BME280;17871;31.584;74.450;2023-04-07T02:47:07;98904.84;;;23.12;56.76
31239;BME280;17871;31.584;74.450;2023-04-07T02:49:42;98906.50;;;23.15;56.71
31239;BME280;17871;31.584;74.450;2023-04-07T02:52:20;98904.47;;;23.23;54.80
31239;BME280;17871;31.584;74.450;2023-04-07T02:54:54;98908.97;;;23.44;55.81
31239;BME280;17871;31.584;74.450;2023-04-07T02:57:31;98915.94;;;23.44;54.57
31239;BME280;17871;31.584;74.450;2023-04-07T03:00:11;98915.44;;;23.57;54.87
31239;BME280;17871;31.584;74.450;2023-04-07T03:03:08;98920.28;;;23.66;55.82
31239;BME280;17871;31.584;74.450;2023-04-07T03:05:40;98920.31;;;23.88;56.24
31239;BME280;17871;31.584;74.450;2023-04-07T03:08:11;98925.25;;;23.51;56.04
31239;BME280;17871;31.584;74.450;2023-04-07T03:10:40;98921.25;;;23.87;55.80
31239;BME280;17871;31.584;74.450;2023-04-07T03:13:11;98927.09;;;23.70;55.53
31239;BME280;17871;31.584;74.450;2023-04-07T03:15:42;98921.81;;;23.95;56.25
31239;BME280;17871;31.584;74.450;2023-04-07T03:18:14;98930.81;;;24.10;54.59
31239;BME280;17871;31.584;74.450;2023-04-07T03:20:47;98935.59;;;24.22;54.00
31239;BME280;17871;31.584;74.450;2023-04-07T03:23:17;98935.28;;;24.30;54.28
31239;BME280;17871;31.584;74.450;2023-04-07T03:25:46;98938.56;;;24.35;53.89
31239;BME280;17871;31.584;74.450;2023-04-07T03:28:16;98937.22;;;24.46;54.02
31239;BME280;17871;31.584;74.450;2023-04-07T03:30:45;98946.09;;;24.42;53.97
31239;BME280;17871;31.584;74.450;2023-04-07T03:33:15;98941.84;;;24.40;54.20
31239;BME280;17871;31.584;74.450;2023-04-07T03:35:44;98951.50;;;24.59;54.54
31239;BME280;17871;31.584;74.450;2023-04-07T03:38:14;98948.63;;;24.65;54.16
31239;BME280;17871;31.584;74.450;2023-04-07T03:40:45;98944.06;;;24.70;55.04
31239;BME280;17871;31.584;74.450;2023-04-07T03:43:14;98948.56;;;24.89;55.69
31239;BME280;17871;31.584;74.450;2023-04-07T03:45:44;98961.44;;;24.71;54.33
31239;BME280;17871;31.584;74.450;2023-04-07T03:48:16;98953.94;;;24.86;54.50
31239;BME280;17871;31.584;74.450;2023-04-07T03:50:56;98964.63;;;24.79;53.84
31239;BME280;17871;31.584;74.450;2023-04-07T03:53:27;98978.97;;;24.69;53.40
31239;BME280;17871;31.584;74.450;2023-04-07T03:55:58;98966.78;;;24.90;53.06
31239;BME280;17871;31.584;74.450;2023-04-07T03:58:42;98969.13;;;25.18;51.58
31239;BME280;17871;31.584;74.450;2023-04-07T04:01:18;98979.84;;;25.32;50.82
31239;BME280;17871;31.584;74.450;2023-04-07T04:03:49;98974.06;;;25.04;52.18
31239;BME280;17871;31.584;74.450;2023-04-07T04:06:25;98981.25;;;25.39;51.89
31239;BME280;17871;31.584;74.450;2023-04-07T04:09:03;98974.66;;;25.30;51.84
31239;BME280;17871;31.584;74.450;2023-04-07T04:11:36;98977.75;;;25.20;52.57
31239;BME280;17871;31.584;74.450;2023-04-07T04:14:06;98973.66;;;25.73;50.74
31239;BME280;17871;31.584;74.450;2023-04-07T04:16:37;98978.84;;;25.94;50.60
31239;BME280;17871;31.584;74.450;2023-04-07T04:19:22;98971.63;;;25.99;49.78
31239;BME280;17871;31.584;74.450;2023-04-07T04:21:52;98981.97;;;26.02;50.73
31239;BME280;17871;31.584;74.450;2023-04-07T04:24:21;98983.22;;;26.12;48.38
31239;BME280;17871;31.584;74.450;2023-04-07T04:26:52;98983.00;;;26.18;49.36
31239;BME280;17871;31.584;74.450;2023-04-07T04:29:22;98987.56;;;26.31;49.25
31239;BME280;17871;31.584;74.450;2023-04-07T04:31:53;98986.47;;;26.37;49.17
31239;BME280;17871;31.584;74.450;2023-04-07T04:34:23;98981.88;;;26.23;48.19
31239;BME280;17871;31.584;74.450;2023-04-07T04:36:54;98987.19;;;26.58;48.06
31239;BME280;17871;31.584;74.450;2023-04-07T04:39:24;98983.66;;;26.59;47.12
31239;BME280;17871;31.584;74.450;2023-04-07T04:41:53;98982.25;;;26.88;48.13
31239;BME280;17871;31.584;74.450;2023-04-07T04:44:31;98986.75;;;27.03;48.97
31239;BME280;17871;31.584;74.450;2023-04-07T04:47:02;98985.25;;;26.97;49.72
31239;BME280;17871;31.584;74.450;2023-04-07T04:49:32;98980.34;;;27.08;48.33
31239;BME280;17871;31.584;74.450;2023-04-07T04:52:03;98973.91;;;27.31;49.06
31239;BME280;17871;31.584;74.450;2023-04-07T04:54:39;98978.78;;;27.39;48.35
31239;BME280;17871;31.584;74.450;2023-04-07T04:57:10;98979.50;;;27.59;49.22
31239;BME280;17871;31.584;74.450;2023-04-07T04:59:40;98981.63;;;27.68;48.79
31239;BME280;17871;31.584;74.450;2023-04-07T05:02:10;98981.63;;;27.68;48.35
31239;BME280;17871;31.584;74.450;2023-04-07T05:04:40;98983.91;;;27.74;48.91
31239;BME280;17871;31.584;74.450;2023-04-07T05:07:23;98986.06;;;27.99;47.58
31239;BME280;17871;31.584;74.450;2023-04-07T05:09:53;98981.13;;;28.10;47.30
31239;BME280;17871;31.584;74.450;2023-04-07T05:12:22;98984.72;;;28.25;48.47
31239;BME280;17871;31.584;74.450;2023-04-07T05:14:57;98984.88;;;28.22;48.88
31239;BME280;17871;31.584;74.450;2023-04-07T05:17:26;98987.09;;;28.45;45.63
31239;BME280;17871;31.584;74.450;2023-04-07T05:19:58;98988.41;;;28.37;47.15
31239;BME280;17871;31.584;74.450;2023-04-07T05:22:35;98977.31;;;28.47;45.66
31239;BME280;17871;31.584;74.450;2023-04-07T05:25:07;98978.22;;;28.62;45.21
31239;BME280;17871;31.584;74.450;2023-04-07T05:27:39;98979.84;;;28.80;44.50
31239;BME280;17871;31.584;74.450;2023-04-07T05:30:13;98986.31;;;28.74;44.40
31239;BME280;17871;31.584;74.450;2023-04-07T05:32:43;98982.84;;;28.74;43.57
31239;BME280;17871;31.584;74.450;2023-04-07T05:35:24;98982.78;;;28.90;44.17
31239;BME280;17871;31.584;74.450;2023-04-07T05:37:56;98983.03;;;29.15;43.11
31239;BME280;17871;31.584;74.450;2023-04-07T05:40:28;98984.66;;;29.17;43.27
31239;BME280;17871;31.584;74.450;2023-04-07T05:43:01;98982.75;;;29.35;42.64
31239;BME280;17871;31.584;74.450;2023-04-07T05:45:33;98989.22;;;29.00;40.76
31239;BME280;17871;31.584;74.450;2023-04-07T05:48:02;98978.25;;;29.37;41.62
31239;BME280;17871;31.584;74.450;2023-04-07T05:50:39;98963.94;;;29.41;40.70
31239;BME280;17871;31.584;74.450;2023-04-07T05:53:13;98976.00;;;29.45;41.44
31239;BME280;17871;31.584;74.450;2023-04-07T05:55:43;98972.72;;;29.56;38.22
31239;BME280;17871;31.584;74.450;2023-04-07T05:58:24;98967.56;;;29.97;39.12
31239;BME280;17871;31.584;74.450;2023-04-07T06:00:55;98974.50;;;29.98;38.78
31239;BME280;17871;31.584;74.450;2023-04-07T06:03:25;98984.50;;;29.93;36.61
31239;BME280;17871;31.584;74.450;2023-04-07T06:06:06;98973.19;;;29.91;36.72
31239;BME280;17871;31.584;74.450;2023-04-07T06:08:36;98972.38;;;29.90;36.44
31239;BME280;17871;31.584;74.450;2023-04-07T06:11:05;98970.56;;;30.05;33.38
31239;BME280;17871;31.584;74.450;2023-04-07T06:13:35;98972.47;;;30.03;34.51
31239;BME280;17871;31.584;74.450;2023-04-07T06:16:04;98965.09;;;30.08;34.74
31239;BME280;17871;31.584;74.450;2023-04-07T06:18:34;98965.03;;;30.36;33.28
31239;BME280;17871;31.584;74.450;2023-04-07T06:21:06;98965.97;;;30.35;34.44
31239;BME280;17871;31.584;74.450;2023-04-07T06:23:36;98960.38;;;30.13;36.27
31239;BME280;17871;31.584;74.450;2023-04-07T06:26:10;98970.13;;;30.39;35.71
31239;BME280;17871;31.584;74.450;2023-04-07T06:28:42;98958.94;;;30.21;35.44
31239;BME280;17871;31.584;74.450;2023-04-07T06:31:13;98958.78;;;30.51;35.36
31239;BME280;17871;31.584;74.450;2023-04-07T06:33:44;98954.22;;;30.41;34.75
31239;BME280;17871;31.584;74.450;2023-04-07T06:36:14;98948.69;;;30.58;34.44
31239;BME280;17871;31.584;74.450;2023-04-07T06:38:43;98947.59;;;30.48;33.53
31239;BME280;17871;31.584;74.450;2023-04-07T06:41:12;98943.09;;;30.35;32.82
31239;BME280;17871;31.584;74.450;2023-04-07T06:43:49;98944.22;;;30.72;32.20
31239;BME280;17871;31.584;74.450;2023-04-07T06:46:24;98951.09;;;30.34;32.18
31239;BME280;17871;31.584;74.450;2023-04-07T06:48:57;98939.53;;;31.03;33.29
31239;BME280;17871;31.584;74.450;2023-04-07T06:51:26;98941.25;;;31.16;32.41
31239;BME280;17871;31.584;74.450;2023-04-07T06:53:56;98941.88;;;31.07;33.32
31239;BME280;17871;31.584;74.450;2023-04-07T06:56:25;98935.16;;;31.28;32.16
31239;BME280;17871;31.584;74.450;2023-04-07T06:58:55;98939.28;;;30.93;30.78
31239;BME280;17871;31.584;74.450;2023-04-07T07:01:24;98935.59;;;30.56;31.41
31239;BME280;17871;31.584;74.450;2023-04-07T07:03:54;98936.59;;;31.20;31.26
31239;BME280;17871;31.584;74.450;2023-04-07T07:06:23;98924.38;;;31.31;30.89
31239;BME280;17871;31.584;74.450;2023-04-07T07:08:54;98928.16;;;31.40;30.14
31239;BME280;17871;31.584;74.450;2023-04-07T07:11:23;98924.88;;;31.24;29.72
31239;BME280;17871;31.584;74.450;2023-04-07T07:13:53;98928.50;;;31.48;30.73
31239;BME280;17871;31.584;74.450;2023-04-07T07:16:23;98918.56;;;31.52;30.84
31239;BME280;17871;31.584;74.450;2023-04-07T07:18:52;98920.78;;;31.70;31.17
31239;BME280;17871;31.584;74.450;2023-04-07T07:21:22;98915.59;;;31.56;30.82
31239;BME280;17871;31.584;74.450;2023-04-07T07:23:51;98909.34;;;31.32;30.05
31239;BME280;17871;31.584;74.450;2023-04-07T07:26:21;98909.56;;;31.42;29.15
31239;BME280;17871;31.584;74.450;2023-04-07T07:28:52;98911.88;;;31.59;30.23
31239;BME280;17871;31.584;74.450;2023-04-07T09:06:16;98785.97;;;32.18;27.85
31239;BME280;17871;31.584;74.450;2023-04-07T09:08:46;98782.28;;;32.31;26.05
31239;BME280;17871;31.584;74.450;2023-04-07T09:14:04;98780.88;;;32.38;25.71
31239;BME280;17871;31.584;74.450;2023-04-07T09:16:35;98762.38;;;32.50;25.75
31239;BME280;17871;31.584;74.450;2023-04-07T09:19:06;98770.81;;;32.55;25.58
31239;BME280;17871;31.584;74.450;2023-04-07T09:21:51;98772.06;;;32.62;26.01
31239;BME280;17871;31.584;74.450;2023-04-07T09:24:23;98770.66;;;32.45;25.77
31239;BME280;17871;31.584;74.450;2023-04-07T09:27:09;98760.63;;;32.61;27.07
31239;BME280;17871;31.584;74.450;2023-04-07T09:29:43;98763.50;;;32.58;27.25
31239;BME280;17871;31.584;74.450;2023-04-07T09:32:36;98756.72;;;32.54;24.57
31239;BME280;17871;31.584;74.450;2023-04-07T09:35:11;98751.97;;;32.59;25.81
31239;BME280;17871;31.584;74.450;2023-04-07T09:37:41;98751.56;;;32.53;25.38
31239;BME280;17871;31.584;74.450;2023-04-07T09:40:10;98753.72;;;32.48;25.81
31239;BME280;17871;31.584;74.450;2023-04-07T09:42:46;98751.44;;;32.54;25.02
31239;BME280;17871;31.584;74.450;2023-04-07T09:45:26;98753.03;;;32.57;25.87
31239;BME280;17871;31.584;74.450;2023-04-07T09:48:01;98738.91;;;32.45;24.61
31239;BME280;17871;31.584;74.450;2023-04-07T09:50:35;98735.56;;;32.54;25.98
31239;BME280;17871;31.584;74.450;2023-04-07T09:53:06;98736.41;;;32.44;25.75
31239;BME280;17871;31.584;74.450;2023-04-07T09:55:38;98731.19;;;32.31;25.26
31239;BME280;17871;31.584;74.450;2023-04-07T09:58:13;98730.19;;;32.21;24.87
31239;BME280;17871;31.584;74.450;2023-04-07T10:01:20;98733.56;;;32.23;23.72
31239;BME280;17871;31.584;74.450;2023-04-07T10:03:50;98725.88;;;32.31;25.02
31239;BME280;17871;31.584;74.450;2023-04-07T10:06:21;98724.59;;;32.36;25.72
31239;BME280;17871;31.584;74.450;2023-04-07T10:08:51;98720.25;;;32.35;25.56
31239;BME280;17871;31.584;74.450;2023-04-07T10:11:20;98723.13;;;32.32;25.98
31239;BME280;17871;31.584;74.450;2023-04-07T10:13:49;98727.78;;;32.18;24.59
31239;BME280;17871;31.584;74.450;2023-04-07T10:16:20;98726.81;;;32.19;24.99
31239;BME280;17871;31.584;74.450;2023-04-07T10:18:50;98723.47;;;32.17;24.00
31239;BME280;17871;31.584;74.450;2023-04-07T10:21:19;98714.53;;;32.18;23.59
31239;BME280;17871;31.584;74.450;2023-04-07T10:23:55;98714.31;;;32.21;23.95
31239;BME280;17871;31.584;74.450;2023-04-07T10:26:29;98712.75;;;32.07;24.19
31239;BME280;17871;31.584;74.450;2023-04-07T10:29:07;98711.66;;;32.10;24.07
31239;BME280;17871;31.584;74.450;2023-04-07T10:31:38;98705.56;;;31.97;23.38
31239;BME280;17871;31.584;74.450;2023-04-07T10:34:07;98706.91;;;32.02;24.02
31239;BME280;17871;31.584;74.450;2023-04-07T10:37:11;98706.47;;;32.08;24.01
31239;BME280;17871;31.584;74.450;2023-04-07T10:39:41;98716.88;;;31.99;23.19
31239;BME280;17871;31.584;74.450;2023-04-07T10:42:46;98701.75;;;32.01;22.70
31239;BME280;17871;31.584;74.450;2023-04-07T10:48:18;98702.03;;;32.09;22.80
31239;BME280;17871;31.584;74.450;2023-04-07T10:51:11;98694.31;;;32.06;22.47
31239;BME280;17871;31.584;74.450;2023-04-07T10:54:15;98693.38;;;32.18;23.67
31239;BME280;17871;31.584;74.450;2023-04-07T10:57:04;98695.03;;;32.08;23.59
31239;BME280;17871;31.584;74.450;2023-04-07T10:59:38;98698.53;;;32.08;23.53
31239;BME280;17871;31.584;74.450;2023-04-07T11:04:45;98692.91;;;32.13;24.25
31239;BME280;17871;31.584;74.450;2023-04-07T11:07:14;98696.22;;;32.04;22.60
31239;BME280;17871;31.584;74.450;2023-04-07T11:09:48;98693.06;;;31.99;23.25
31239;BME280;17871;31.584;74.450;2023-04-07T11:12:24;98686.06;;;32.10;23.49
31239;BME280;17871;31.584;74.450;2023-04-07T11:14:54;98681.81;;;32.08;23.51
31239;BME280;17871;31.584;74.450;2023-04-07T11:17:24;98681.47;;;32.12;24.53
31239;BME280;17871;31.584;74.450;2023-04-07T11:19:55;98685.69;;;32.15;24.17
31239;BME280;17871;31.584;74.450;2023-04-07T11:22:26;98677.72;;;32.04;23.53
31239;BME280;17871;31.584;74.450;2023-04-07T11:24:58;98676.31;;;32.11;24.30
31239;BME280;17871;31.584;74.450;2023-04-07T11:27:28;98681.00;;;32.07;24.12
31239;BME280;17871;31.584;74.450;2023-04-07T11:29:57;98675.94;;;32.04;24.40
31239;BME280;17871;31.584;74.450;2023-04-07T11:32:27;98680.16;;;32.07;25.61
31239;BME280;17871;31.584;74.450;2023-04-07T11:34:57;98681.63;;;32.11;25.76
31239;BME280;17871;31.584;74.450;2023-04-07T11:37:26;98679.84;;;31.99;25.15
31239;BME280;17871;31.584;74.450;2023-04-07T11:39:57;98679.97;;;31.97;24.85
31239;BME280;17871;31.584;74.450;2023-04-07T11:42:37;98671.91;;;31.99;25.15
31239;BME280;17871;31.584;74.450;2023-04-07T11:45:17;98666.19;;;32.05;25.62
31239;BME280;17871;31.584;74.450;2023-04-07T11:47:50;98674.31;;;32.02;26.25
31239;BME280;17871;31.584;74.450;2023-04-07T11:50:38;98673.94;;;31.95;26.65
31239;BME280;17871;31.584;74.450;2023-04-07T11:53:08;98674.53;;;31.87;27.02
31239;BME280;17871;31.584;74.450;2023-04-07T11:55:37;98677.41;;;31.84;26.71
31239;BME280;17871;31.584;74.450;2023-04-07T11:58:07;98679.38;;;31.94;27.37
31239;BME280;17871;31.584;74.450;2023-04-07T12:00:56;98670.91;;;31.88;27.43
31239;BME280;17871;31.584;74.450;2023-04-07T12:03:26;98667.41;;;31.77;27.03
31239;BME280;17871;31.584;74.450;2023-04-07T12:05:55;98661.50;;;31.73;27.38
31239;BME280;17871;31.584;74.450;2023-04-07T12:08:38;98665.09;;;31.72;26.27
31239;BME280;17871;31.584;74.450;2023-04-07T12:11:08;98667.25;;;31.67;26.62
31239;BME280;17871;31.584;74.450;2023-04-07T12:13:37;98673.19;;;31.58;26.82
31239;BME280;17871;31.584;74.450;2023-04-07T12:16:06;98669.25;;;31.40;24.84
31239;BME280;17871;31.584;74.450;2023-04-07T12:18:36;98663.25;;;31.38;24.63
31239;BME280;17871;31.584;74.450;2023-04-07T12:21:05;98653.84;;;31.34;25.31
31239;BME280;17871;31.584;74.450;2023-04-07T12:23:34;98668.41;;;31.39;24.56
31239;BME280;17871;31.584;74.450;2023-04-07T12:26:03;98671.72;;;31.30;24.62
31239;BME280;17871;31.584;74.450;2023-04-07T12:28:33;98675.34;;;31.17;23.56
31239;BME280;17871;31.584;74.450;2023-04-07T12:31:02;98672.28;;;31.23;24.70
31239;BME280;17871;31.584;74.450;2023-04-07T12:33:32;98666.94;;;31.12;25.00
31239;BME280;17871;31.584;74.450;2023-04-07T12:36:01;98667.16;;;31.09;25.42
31239;BME280;17871;31.584;74.450;2023-04-07T12:38:32;98669.34;;;31.15;26.33
31239;BME280;17871;31.584;74.450;2023-04-07T12:41:01;98666.31;;;30.96;26.85
31239;BME280;17871;31.584;74.450;2023-04-07T12:43:30;98667.25;;;30.95;27.59
31239;BME280;17871;31.584;74.450;2023-04-07T12:46:00;98665.56;;;30.94;28.01
31239;BME280;17871;31.584;74.450;2023-04-07T12:48:29;98669.59;;;30.86;28.26
31239;BME280;17871;31.584;74.450;2023-04-07T12:50:59;98669.22;;;30.67;27.36
31239;BME280;17871;31.584;74.450;2023-04-07T12:53:29;98666.06;;;30.62;27.96
31239;BME280;17871;31.584;74.450;2023-04-07T12:55:58;98663.81;;;30.56;26.37
31239;BME280;17871;31.584;74.450;2023-04-07T12:58:27;98675.34;;;30.55;27.53
31239;BME280;17871;31.584;74.450;2023-04-07T13:00:57;98671.75;;;30.44;26.59
31239;BME280;17871;31.584;74.450;2023-04-07T13:03:28;98674.53;;;30.42;27.78
31239;BME280;17871;31.584;74.450;2023-04-07T13:05:58;98673.44;;;30.32;28.02
31239;BME280;17871;31.584;74.450;2023-04-07T13:08:29;98675.44;;;30.28;27.92
31239;BME280;17871;31.584;74.450;2023-04-07T13:10:58;98673.44;;;30.19;28.20
31239;BME280;17871;31.584;74.450;2023-04-07T13:13:27;98671.50;;;30.09;28.54
31239;BME280;17871;31.584;74.450;2023-04-07T13:15:56;98673.81;;;30.01;29.06
31239;BME280;17871;31.584;74.450;2023-04-07T13:18:25;98679.91;;;29.89;29.53
31239;BME280;17871;31.584;74.450;2023-04-07T13:20:54;98676.06;;;29.80;29.38
31239;BME280;17871;31.584;74.450;2023-04-07T13:23:43;98677.41;;;29.73;30.32
31239;BME280;17871;31.584;74.450;2023-04-07T13:26:12;98679.63;;;29.66;29.91
31239;BME280;17871;31.584;74.450;2023-04-07T13:28:41;98676.53;;;29.60;30.07
31239;BME280;17871;31.584;74.450;2023-04-07T13:31:13;98674.31;;;29.54;30.47
31239;BME280;17871;31.584;74.450;2023-04-07T13:33:44;98680.06;;;29.46;30.92
31239;BME280;17871;31.584;74.450;2023-04-07T13:36:13;98683.09;;;29.40;31.22
31239;BME280;17871;31.584;74.450;2023-04-07T13:38:42;98676.94;;;29.27;31.09
31239;BME280;17871;31.584;74.450;2023-04-07T13:41:12;98677.31;;;29.21;31.31
31239;BME280;17871;31.584;74.450;2023-04-07T13:43:40;98687.19;;;29.17;31.16
31239;BME280;17871;31.584;74.450;2023-04-07T13:46:12;98680.41;;;29.13;31.64
31239;BME280;17871;31.584;74.450;2023-04-07T13:48:48;98678.47;;;29.03;32.03
31239;BME280;17871;31.584;74.450;2023-04-07T13:51:18;98676.09;;;28.98;32.69
31239;BME280;17871;31.584;74.450;2023-04-07T13:53:47;98678.19;;;28.93;32.71
31239;BME280;17871;31.584;74.450;2023-04-07T13:56:16;98681.09;;;28.89;33.31
31239;BME280;17871;31.584;74.450;2023-04-07T13:58:45;98686.56;;;28.85;33.30
31239;BME280;17871;31.584;74.450;2023-04-07T14:01:15;98680.75;;;28.80;33.03
31239;BME280;17871;31.584;74.450;2023-04-07T14:03:44;98685.63;;;28.72;33.50
31239;BME280;17871;31.584;74.450;2023-04-07T14:06:15;98691.44;;;28.63;33.75
31239;BME280;17871;31.584;74.450;2023-04-07T14:08:44;98697.53;;;28.64;33.49
31239;BME280;17871;31.584;74.450;2023-04-07T14:11:16;98687.28;;;28.59;33.61
31239;BME280;17871;31.584;74.450;2023-04-07T14:13:46;98695.47;;;28.55;34.45
31239;BME280;17871;31.584;74.450;2023-04-07T14:16:15;98696.13;;;28.44;35.51
31239;BME280;17871;31.584;74.450;2023-04-07T14:18:45;98695.84;;;28.34;34.78
31239;BME280;17871;31.584;74.450;2023-04-07T14:21:14;98705.09;;;28.26;34.76
31239;BME280;17871;31.584;74.450;2023-04-07T14:23:43;98702.75;;;28.21;34.93
31239;BME280;17871;31.584;74.450;2023-04-07T14:26:12;98699.47;;;28.18;34.87
31239;BME280;17871;31.584;74.450;2023-04-07T14:28:41;98709.97;;;28.18;35.34
31239;BME280;17871;31.584;74.450;2023-04-07T14:31:14;98711.69;;;28.19;34.73
31239;BME280;17871;31.584;74.450;2023-04-07T14:33:44;98711.19;;;28.12;35.09
31239;BME280;17871;31.584;74.450;2023-04-07T14:36:14;98713.16;;;28.09;34.88
31239;BME280;17871;31.584;74.450;2023-04-07T14:38:45;98712.38;;;28.07;34.94
31239;BME280;17871;31.584;74.450;2023-04-07T14:41:17;98715.94;;;28.06;35.36
31239;BME280;17871;31.584;74.450;2023-04-07T14:43:47;98726.44;;;28.06;35.26
31239;BME280;17871;31.584;74.450;2023-04-07T14:46:23;98730.00;;;28.05;35.75
31239;BME280;17871;31.584;74.450;2023-04-07T14:48:53;98732.22;;;27.97;36.30
31239;BME280;17871;31.584;74.450;2023-04-07T14:51:24;98731.91;;;27.87;36.40
31239;BME280;17871;31.584;74.450;2023-04-07T14:53:53;98736.47;;;27.83;36.97
31239;BME280;17871;31.584;74.450;2023-04-07T14:56:23;98734.31;;;27.76;37.14
31239;BME280;17871;31.584;74.450;2023-04-07T14:58:52;98741.69;;;27.69;37.49
31239;BME280;17871;31.584;74.450;2023-04-07T15:01:21;98746.53;;;27.61;38.16
31239;BME280;17871;31.584;74.450;2023-04-07T15:03:51;98755.31;;;27.60;37.59
31239;BME280;17871;31.584;74.450;2023-04-07T15:06:21;98750.06;;;27.60;37.96
31239;BME280;17871;31.584;74.450;2023-04-07T15:08:50;98754.75;;;27.55;38.57
31239;BME280;17871;31.584;74.450;2023-04-07T15:11:20;98760.75;;;27.57;38.77